Terminal Aerodrome Forecast
Issued by NWS

Home | Current Version | Previous Version | Text Only | Print | Product List | Glossary On
Versions: 1 2 3 4 5 6 7 8 9 10 11 12 13 14 15 16 17 18
000
FTUS43 KMQT 031138
TAFIWD
TAF
KIWD 031138Z 0312/0412 10003KT 1/4SM FG VV001
     FM031300 10003KT 1SM BR BKN003
     FM031500 09003KT P6SM SCT035
     FM031800 07003KT P6SM FEW060
     FM040200 15004KT P6SM SKC
     FM040800 15006KT 2SM BR SKC
      AMD LTD TO CLD VIS AND WIND=

USA.gov is the U.S. government's official web portal to all federal, state and local government web resources and services.